createdAt,value
2022-10-22T00:02:22.375Z,11.00
2022-10-22T00:07:28.300Z,10.35
2022-10-22T00:12:28.520Z,10.17
2022-10-22T00:17:29.544Z,12.10
2022-10-22T00:22:28.848Z,11.10
2022-10-22T00:27:28.406Z,10.57
2022-10-22T00:32:26.127Z,12.20
2022-10-22T00:37:23.601Z,10.05
2022-10-22T00:42:24.101Z,9.20
2022-10-22T00:47:35.556Z,10.25
2022-10-22T00:52:35.446Z,9.30
2022-10-22T00:57:35.683Z,8.60
2022-10-22T01:02:37.983Z,7.93
2022-10-22T01:07:43.526Z,7.88
2022-10-22T01:13:09.728Z,8.95
2022-10-22T01:18:15.287Z,7.53
2022-10-22T01:23:51.617Z,5.75
2022-10-22T01:28:55.749Z,5.55
2022-10-22T01:33:54.899Z,6.93
2022-10-22T01:38:54.167Z,7.38
2022-10-22T01:43:54.654Z,7.63
2022-10-22T01:49:03.591Z,8.57
2022-10-22T01:54:14.459Z,8.38
2022-10-22T01:59:36.170Z,7.55
2022-10-22T02:04:54.929Z,9.35
2022-10-22T02:09:58.327Z,10.45
2022-10-22T02:14:58.769Z,11.67
2022-10-22T02:20:02.937Z,9.90
2022-10-22T02:25:01.196Z,10.85
2022-10-22T02:30:05.840Z,8.38
2022-10-22T02:35:04.657Z,6.20
2022-10-22T02:40:02.568Z,5.13
2022-10-22T02:45:05.058Z,4.40
2022-10-22T02:50:05.479Z,4.53
2022-10-22T02:55:06.802Z,4.30
2022-10-22T03:00:08.269Z,4.60
2022-10-22T03:05:08.469Z,4.95
2022-10-22T03:10:08.290Z,3.88
2022-10-22T03:15:09.879Z,3.88
2022-10-22T03:20:08.715Z,4.22
2022-10-22T03:25:08.619Z,3.70
2022-10-22T03:30:11.556Z,3.85
2022-10-22T03:35:13.044Z,4.63
2022-10-22T03:40:12.425Z,4.40
2022-10-22T03:45:11.417Z,3.42
2022-10-22T03:50:10.872Z,4.00
2022-10-22T03:55:09.930Z,3.78
2022-10-22T04:00:08.837Z,4.00
2022-10-22T04:05:09.349Z,4.50
2022-10-22T04:10:09.002Z,4.13
2022-10-22T04:15:07.895Z,4.18
2022-10-22T04:20:06.128Z,4.30
2022-10-22T04:25:08.502Z,5.10
2022-10-22T04:30:09.226Z,4.55
2022-10-22T04:35:11.292Z,5.25
2022-10-22T04:40:10.979Z,4.85
2022-10-22T04:45:10.172Z,4.72
2022-10-22T04:50:15.673Z,5.30
2022-10-22T04:55:25.811Z,4.93
2022-10-22T05:00:23.783Z,5.22
2022-10-22T05:05:24.535Z,5.72
2022-10-22T05:10:25.576Z,6.53
2022-10-22T05:15:24.252Z,5.80
2022-10-22T05:20:25.788Z,5.85
2022-10-22T05:25:25.842Z,6.05
2022-10-22T05:30:27.862Z,7.13
2022-10-22T05:35:28.935Z,7.78
2022-10-22T05:40:31.150Z,6.55
2022-10-22T05:45:40.389Z,6.63
2022-10-22T05:50:42.065Z,5.30
2022-10-22T05:55:41.202Z,5.65
2022-10-22T06:00:42.693Z,6.20
2022-10-22T06:05:43.370Z,5.72
2022-10-22T06:10:45.596Z,7.15
2022-10-22T06:15:44.087Z,5.50
2022-10-22T06:20:52.544Z,5.82
2022-10-22T06:26:02.581Z,6.13
2022-10-22T06:31:02.493Z,5.57
2022-10-22T06:36:09.183Z,5.57
2022-10-22T06:41:16.537Z,6.00
2022-10-22T06:46:19.970Z,5.65
2022-10-22T06:51:28.573Z,4.97
2022-10-22T06:56:29.739Z,5.22
2022-10-22T07:01:34.756Z,4.65
2022-10-22T07:06:36.277Z,5.00
2022-10-22T07:11:40.997Z,5.82
2022-10-22T07:16:45.771Z,5.65
2022-10-22T07:21:45.574Z,5.53
2022-10-22T07:26:47.151Z,6.70
2022-10-22T07:31:46.785Z,7.47
2022-10-22T07:36:46.445Z,8.20
2022-10-22T07:41:46.624Z,7.22
2022-10-22T07:46:49.091Z,4.95
2022-10-22T07:52:13.239Z,4.05
2022-10-22T07:57:10.849Z,4.78
2022-10-22T08:02:17.183Z,4.43
2022-10-22T08:07:19.256Z,5.47
2022-10-22T08:12:17.918Z,4.72
2022-10-22T08:17:17.646Z,4.50
2022-10-22T08:22:18.505Z,4.00
2022-10-22T08:32:49.320Z,3.40
2022-10-22T08:37:52.906Z,4.13
2022-10-22T08:48:59.431Z,5.60
2022-10-22T08:54:36.206Z,7.13
2022-10-22T08:59:48.905Z,7.32
2022-10-22T09:04:59.347Z,6.70
2022-10-22T09:09:59.939Z,6.55
2022-10-22T09:15:00.785Z,6.70
2022-10-22T09:20:26.473Z,5.50
2022-10-22T09:25:27.809Z,4.65
2022-10-22T09:30:38.014Z,5.38
2022-10-22T09:35:54.112Z,5.85
2022-10-22T09:40:53.769Z,5.93
2022-10-22T09:46:06.659Z,5.22
2022-10-22T09:51:23.700Z,4.75
2022-10-22T09:56:31.161Z,5.72
2022-10-22T10:01:33.623Z,5.05
2022-10-22T10:06:35.686Z,4.93
2022-10-22T10:11:40.204Z,5.28
2022-10-22T10:17:01.243Z,5.20
2022-10-22T10:22:43.301Z,5.75
2022-10-22T10:27:51.588Z,5.30
2022-10-22T10:33:27.752Z,4.85
2022-10-22T10:38:32.027Z,4.68
2022-10-22T10:43:38.602Z,5.18
2022-10-22T10:48:49.223Z,4.80
2022-10-22T10:54:21.701Z,4.57
2022-10-22T10:59:50.898Z,4.43
2022-10-22T11:05:03.843Z,5.07
2022-10-22T11:10:31.739Z,4.70
2022-10-22T11:16:34.000Z,5.03
2022-10-22T11:21:54.136Z,4.53
2022-10-22T11:27:03.063Z,4.38
2022-10-22T11:32:06.779Z,4.30
2022-10-22T11:42:23.265Z,5.05
2022-10-22T11:47:53.960Z,5.10
2022-10-22T11:53:02.823Z,5.15
2022-10-22T11:58:03.064Z,4.50
2022-10-22T12:03:35.513Z,4.50
2022-10-22T12:08:43.618Z,3.53
2022-10-22T12:14:05.039Z,5.20
2022-10-22T12:19:34.295Z,5.22
2022-10-22T12:24:35.700Z,5.43
2022-10-22T12:29:35.358Z,4.35
2022-10-22T12:39:56.422Z,4.28
2022-10-22T12:44:58.771Z,4.90
2022-10-22T12:49:57.409Z,4.55
2022-10-22T12:54:58.089Z,5.10
2022-10-22T12:59:56.315Z,4.70
2022-10-22T13:05:28.201Z,4.55
2022-10-22T13:10:32.229Z,4.60
2022-10-22T13:15:35.754Z,4.65
2022-10-22T13:20:38.804Z,4.20
2022-10-22T13:25:44.464Z,4.60
2022-10-22T13:31:03.651Z,4.85
2022-10-22T13:36:04.254Z,5.00
2022-10-22T13:41:24.927Z,5.20
2022-10-22T13:46:25.620Z,5.05
2022-10-22T13:51:41.224Z,4.93
2022-10-22T13:56:49.270Z,4.82
2022-10-22T14:01:51.281Z,5.25
2022-10-22T14:06:53.057Z,5.13
2022-10-22T14:11:52.872Z,4.97
2022-10-22T14:17:01.091Z,5.47
2022-10-22T14:22:15.151Z,4.63
2022-10-22T14:27:15.005Z,4.70
2022-10-22T14:32:23.320Z,4.55
2022-10-22T14:37:27.058Z,6.18
2022-10-22T14:42:28.396Z,6.57
2022-10-22T14:47:33.753Z,5.85
2022-10-22T14:52:32.676Z,6.10
2022-10-22T14:57:30.971Z,5.43
2022-10-22T15:02:31.969Z,5.30
2022-10-22T15:07:31.346Z,4.97
2022-10-22T15:12:32.212Z,4.85
2022-10-22T15:17:36.513Z,9.40
2022-10-22T15:22:35.739Z,5.30
2022-10-22T15:27:38.272Z,5.75
2022-10-22T15:32:48.845Z,5.90
2022-10-22T15:37:51.031Z,5.90
2022-10-22T15:42:52.450Z,19.88
2022-10-22T15:47:53.536Z,8.82
2022-10-22T15:52:54.806Z,9.73
2022-10-22T15:57:57.970Z,10.55
2022-10-22T16:03:04.879Z,9.95
2022-10-22T16:08:10.167Z,15.50
2022-10-22T16:13:09.035Z,17.65
2022-10-22T16:18:18.910Z,17.55
2022-10-22T16:23:24.719Z,13.63
2022-10-22T16:28:25.571Z,17.70
2022-10-22T16:33:27.006Z,20.55
2022-10-22T16:38:26.487Z,17.20
2022-10-22T16:43:26.220Z,18.95
2022-10-22T16:48:24.589Z,20.25
2022-10-22T16:53:26.988Z,22.17
2022-10-22T16:58:28.468Z,21.70
2022-10-22T17:03:32.848Z,22.88
2022-10-22T17:08:41.637Z,22.98
2022-10-22T17:14:02.562Z,22.75
2022-10-22T17:19:04.336Z,22.42
2022-10-22T17:24:07.851Z,20.00
2022-10-22T17:29:08.570Z,17.95
2022-10-22T17:34:16.068Z,17.60
2022-10-22T17:39:19.917Z,18.90
2022-10-22T17:44:21.481Z,18.00
2022-10-22T17:49:21.207Z,14.88
2022-10-22T17:54:21.038Z,15.43
2022-10-22T17:59:20.099Z,14.68
2022-10-22T18:04:23.149Z,15.25
2022-10-22T18:09:27.219Z,14.35
2022-10-22T18:14:28.622Z,14.93
2022-10-22T18:19:50.168Z,15.02
2022-10-22T18:30:20.858Z,16.50
2022-10-22T18:35:21.000Z,18.05
2022-10-22T18:40:21.414Z,15.63
2022-10-22T18:45:20.467Z,14.27
2022-10-22T18:50:23.534Z,13.70
2022-10-22T18:55:22.606Z,14.13
2022-10-22T19:00:26.624Z,15.10
2022-10-22T19:05:25.639Z,15.23
2022-10-22T19:10:24.324Z,14.48
2022-10-22T19:20:36.515Z,16.50
2022-10-22T19:25:38.900Z,14.38
2022-10-22T19:30:36.233Z,14.63
2022-10-22T19:35:37.450Z,14.85
2022-10-22T19:40:37.874Z,14.68
2022-10-22T19:45:41.047Z,14.60
2022-10-22T19:50:39.804Z,14.07
2022-10-22T19:55:47.171Z,12.57
2022-10-22T20:00:55.414Z,12.63
2022-10-22T20:05:55.723Z,13.45
2022-10-22T20:10:57.860Z,13.73
2022-10-22T20:16:02.121Z,12.93
2022-10-22T20:21:33.653Z,14.00
2022-10-22T20:26:50.612Z,15.00
2022-10-22T20:31:52.260Z,12.13
2022-10-22T20:37:14.315Z,12.27
2022-10-22T20:42:15.740Z,11.82
2022-10-22T20:48:02.075Z,12.43
2022-10-22T20:59:19.041Z,11.18
2022-10-22T21:04:20.035Z,11.18
2022-10-22T21:09:37.355Z,10.85
2022-10-22T21:14:46.391Z,12.20
2022-10-22T21:19:53.076Z,12.68
2022-10-22T21:24:51.619Z,13.23
2022-10-22T21:30:03.339Z,10.93
2022-10-22T21:35:04.617Z,12.05
2022-10-22T21:40:07.006Z,11.02
2022-10-22T21:45:13.551Z,10.90
2022-10-22T21:50:20.724Z,11.00
2022-10-22T21:55:23.466Z,10.80
2022-10-22T22:00:32.594Z,10.52
2022-10-22T22:05:45.307Z,11.93
2022-10-22T22:17:36.543Z,11.60
2022-10-22T22:22:35.000Z,12.00
2022-10-22T22:27:41.119Z,12.07
2022-10-22T22:32:42.669Z,12.23
2022-10-22T22:37:45.613Z,11.85
2022-10-22T22:42:47.523Z,12.32
2022-10-22T22:47:51.447Z,12.18
2022-10-22T22:57:51.817Z,12.40
2022-10-22T23:02:54.647Z,10.30
2022-10-22T23:07:58.386Z,10.43
2022-10-22T23:12:56.729Z,12.25
2022-10-22T23:17:55.643Z,11.68
2022-10-22T23:22:52.957Z,10.70
2022-10-22T23:27:54.288Z,11.13
2022-10-22T23:32:55.775Z,10.02
2022-10-22T23:37:55.321Z,10.93
2022-10-22T23:42:55.935Z,10.80
2022-10-22T23:47:56.792Z,10.95
2022-10-22T23:52:54.220Z,10.40
2022-10-22T23:57:54.109Z,12.30
